sensor_id;sensor_type;location;lat;lon;timestamp;temperature;humidity
13268;DHT22;6702;47.068;15.458;2023-02-28T00:01:47;4.20;53.20
13268;DHT22;6702;47.068;15.458;2023-02-28T00:04:50;4.20;53.30
13268;DHT22;6702;47.068;15.458;2023-02-28T00:07:55;4.10;53.40
13268;DHT22;6702;47.068;15.458;2023-02-28T00:11:01;4.10;53.50
13268;DHT22;6702;47.068;15.458;2023-02-28T00:14:05;4.00;53.20
13268;DHT22;6702;47.068;15.458;2023-02-28T00:17:09;4.00;53.20
13268;DHT22;6702;47.068;15.458;2023-02-28T00:20:13;3.90;53.40
13268;DHT22;6702;47.068;15.458;2023-02-28T00:23:17;4.00;53.80
13268;DHT22;6702;47.068;15.458;2023-02-28T00:26:21;4.00;53.60
13268;DHT22;6702;47.068;15.458;2023-02-28T00:29:24;4.00;54.00
13268;DHT22;6702;47.068;15.458;2023-02-28T00:32:29;4.00;54.20
13268;DHT22;6702;47.068;15.458;2023-02-28T00:35:32;4.00;54.50
13268;DHT22;6702;47.068;15.458;2023-02-28T00:38:36;4.00;54.50
13268;DHT22;6702;47.068;15.458;2023-02-28T00:41:39;4.00;54.40
13268;DHT22;6702;47.068;15.458;2023-02-28T00:44:42;4.10;54.40
13268;DHT22;6702;47.068;15.458;2023-02-28T00:47:47;4.10;54.50
13268;DHT22;6702;47.068;15.458;2023-02-28T00:50:51;4.10;54.50
13268;DHT22;6702;47.068;15.458;2023-02-28T00:53:54;4.10;54.60
13268;DHT22;6702;47.068;15.458;2023-02-28T00:56:58;4.10;54.70
13268;DHT22;6702;47.068;15.458;2023-02-28T01:00:01;4.10;54.80
13268;DHT22;6702;47.068;15.458;2023-02-28T01:03:06;4.10;54.80
13268;DHT22;6702;47.068;15.458;2023-02-28T01:06:10;4.10;54.80
13268;DHT22;6702;47.068;15.458;2023-02-28T01:09:13;4.10;55.00
13268;DHT22;6702;47.068;15.458;2023-02-28T01:12:16;4.10;55.10
13268;DHT22;6702;47.068;15.458;2023-02-28T01:15:19;4.10;55.10
13268;DHT22;6702;47.068;15.458;2023-02-28T01:18:24;4.10;55.20
13268;DHT22;6702;47.068;15.458;2023-02-28T01:21:27;4.10;55.00
13268;DHT22;6702;47.068;15.458;2023-02-28T01:24:32;4.10;55.00
13268;DHT22;6702;47.068;15.458;2023-02-28T01:27:36;4.00;54.80
13268;DHT22;6702;47.068;15.458;2023-02-28T01:30:41;4.10;54.80
13268;DHT22;6702;47.068;15.458;2023-02-28T01:33:46;4.00;54.80
13268;DHT22;6702;47.068;15.458;2023-02-28T01:36:49;4.00;55.00
13268;DHT22;6702;47.068;15.458;2023-02-28T01:39:52;4.10;55.20
13268;DHT22;6702;47.068;15.458;2023-02-28T01:42:55;4.10;55.30
13268;DHT22;6702;47.068;15.458;2023-02-28T01:45:59;4.10;55.90
13268;DHT22;6702;47.068;15.458;2023-02-28T01:49:07;4.10;55.20
13268;DHT22;6702;47.068;15.458;2023-02-28T01:52:12;4.10;55.40
13268;DHT22;6702;47.068;15.458;2023-02-28T01:55:20;4.10;55.50
13268;DHT22;6702;47.068;15.458;2023-02-28T01:58:25;4.10;55.40
13268;DHT22;6702;47.068;15.458;2023-02-28T02:01:29;4.00;55.30
13268;DHT22;6702;47.068;15.458;2023-02-28T02:04:40;4.10;55.20
13268;DHT22;6702;47.068;15.458;2023-02-28T02:07:46;4.00;55.20
13268;DHT22;6702;47.068;15.458;2023-02-28T02:10:52;4.00;55.40
13268;DHT22;6702;47.068;15.458;2023-02-28T02:14:17;3.90;55.70
13268;DHT22;6702;47.068;15.458;2023-02-28T02:17:30;3.90;56.30
13268;DHT22;6702;47.068;15.458;2023-02-28T02:20:51;3.80;56.80
13268;DHT22;6702;47.068;15.458;2023-02-28T02:24:41;3.80;56.50
13268;DHT22;6702;47.068;15.458;2023-02-28T02:28:05;3.70;56.60
13268;DHT22;6702;47.068;15.458;2023-02-28T02:31:29;3.70;57.20
13268;DHT22;6702;47.068;15.458;2023-02-28T02:34:44;3.70;57.30
13268;DHT22;6702;47.068;15.458;2023-02-28T02:37:54;3.70;57.50
13268;DHT22;6702;47.068;15.458;2023-02-28T02:41:08;3.60;57.20
13268;DHT22;6702;47.068;15.458;2023-02-28T02:44:19;3.60;57.00
13268;DHT22;6702;47.068;15.458;2023-02-28T02:47:27;3.60;57.20
13268;DHT22;6702;47.068;15.458;2023-02-28T02:50:36;3.60;57.30
13268;DHT22;6702;47.068;15.458;2023-02-28T02:53:44;3.60;57.60
13268;DHT22;6702;47.068;15.458;2023-02-28T02:56:50;3.60;57.80
13268;DHT22;6702;47.068;15.458;2023-02-28T02:59:55;3.60;57.60
13268;DHT22;6702;47.068;15.458;2023-02-28T03:02:59;3.60;57.70
13268;DHT22;6702;47.068;15.458;2023-02-28T03:06:05;3.60;57.50
13268;DHT22;6702;47.068;15.458;2023-02-28T03:09:10;3.50;57.40
13268;DHT22;6702;47.068;15.458;2023-02-28T03:12:13;3.40;57.80
13268;DHT22;6702;47.068;15.458;2023-02-28T03:15:20;3.30;58.50
13268;DHT22;6702;47.068;15.458;2023-02-28T03:18:32;3.30;58.70
13268;DHT22;6702;47.068;15.458;2023-02-28T03:21:43;3.30;58.70
13268;DHT22;6702;47.068;15.458;2023-02-28T03:24:52;3.40;59.00
13268;DHT22;6702;47.068;15.458;2023-02-28T03:28:05;3.40;58.80
13268;DHT22;6702;47.068;15.458;2023-02-28T03:31:16;3.20;59.10
13268;DHT22;6702;47.068;15.458;2023-02-28T03:34:25;3.20;59.30
13268;DHT22;6702;47.068;15.458;2023-02-28T03:37:32;3.20;59.60
13268;DHT22;6702;47.068;15.458;2023-02-28T03:40:39;3.30;59.50
13268;DHT22;6702;47.068;15.458;2023-02-28T03:43:49;3.30;59.60
13268;DHT22;6702;47.068;15.458;2023-02-28T03:46:58;3.30;59.50
13268;DHT22;6702;47.068;15.458;2023-02-28T03:50:06;3.20;59.80
13268;DHT22;6702;47.068;15.458;2023-02-28T03:53:15;3.20;59.80
13268;DHT22;6702;47.068;15.458;2023-02-28T03:56:22;3.20;60.00
13268;DHT22;6702;47.068;15.458;2023-02-28T03:59:28;3.20;60.10
13268;DHT22;6702;47.068;15.458;2023-02-28T04:02:33;3.20;60.30
13268;DHT22;6702;47.068;15.458;2023-02-28T04:05:48;3.30;60.10
13268;DHT22;6702;47.068;15.458;2023-02-28T04:08:54;3.30;60.20
13268;DHT22;6702;47.068;15.458;2023-02-28T04:11:57;3.30;60.40
13268;DHT22;6702;47.068;15.458;2023-02-28T04:15:01;3.40;60.50
13268;DHT22;6702;47.068;15.458;2023-02-28T04:18:04;3.50;60.60
13268;DHT22;6702;47.068;15.458;2023-02-28T04:21:07;3.50;60.50
13268;DHT22;6702;47.068;15.458;2023-02-28T04:24:13;3.60;60.20
13268;DHT22;6702;47.068;15.458;2023-02-28T04:27:17;3.60;60.00
13268;DHT22;6702;47.068;15.458;2023-02-28T04:30:21;3.60;60.10
13268;DHT22;6702;47.068;15.458;2023-02-28T04:33:24;3.70;60.10
13268;DHT22;6702;47.068;15.458;2023-02-28T04:36:28;3.70;59.90
13268;DHT22;6702;47.068;15.458;2023-02-28T04:39:35;3.70;59.80
13268;DHT22;6702;47.068;15.458;2023-02-28T04:42:38;3.70;59.60
13268;DHT22;6702;47.068;15.458;2023-02-28T04:45:41;3.70;59.90
13268;DHT22;6702;47.068;15.458;2023-02-28T04:48:45;3.70;59.40
13268;DHT22;6702;47.068;15.458;2023-02-28T04:51:48;3.70;59.40
13268;DHT22;6702;47.068;15.458;2023-02-28T04:54:53;3.70;59.10
13268;DHT22;6702;47.068;15.458;2023-02-28T04:57:56;3.80;59.00
13268;DHT22;6702;47.068;15.458;2023-02-28T05:01:03;3.80;59.00
13268;DHT22;6702;47.068;15.458;2023-02-28T05:04:06;3.80;59.00
13268;DHT22;6702;47.068;15.458;2023-02-28T05:07:10;3.70;58.70
13268;DHT22;6702;47.068;15.458;2023-02-28T05:10:14;3.70;58.90
13268;DHT22;6702;47.068;15.458;2023-02-28T05:13:17;3.70;59.50
13268;DHT22;6702;47.068;15.458;2023-02-28T05:16:21;3.60;58.90
13268;DHT22;6702;47.068;15.458;2023-02-28T05:19:24;3.70;58.90
13268;DHT22;6702;47.068;15.458;2023-02-28T05:22:27;3.70;58.90
13268;DHT22;6702;47.068;15.458;2023-02-28T05:25:32;3.80;59.00
13268;DHT22;6702;47.068;15.458;2023-02-28T05:28:35;3.80;59.00
13268;DHT22;6702;47.068;15.458;2023-02-28T05:31:38;3.80;59.00
13268;DHT22;6702;47.068;15.458;2023-02-28T05:34:41;3.80;59.00
13268;DHT22;6702;47.068;15.458;2023-02-28T05:37:45;3.80;59.30
13268;DHT22;6702;47.068;15.458;2023-02-28T05:40:49;3.70;59.30
13268;DHT22;6702;47.068;15.458;2023-02-28T05:43:53;3.70;59.50
13268;DHT22;6702;47.068;15.458;2023-02-28T05:46:56;3.70;59.50
13268;DHT22;6702;47.068;15.458;2023-02-28T05:49:59;3.80;59.70
13268;DHT22;6702;47.068;15.458;2023-02-28T05:53:03;3.70;59.70
13268;DHT22;6702;47.068;15.458;2023-02-28T05:56:08;3.80;59.80
13268;DHT22;6702;47.068;15.458;2023-02-28T05:59:11;3.80;59.80
13268;DHT22;6702;47.068;15.458;2023-02-28T06:02:17;3.80;59.70
13268;DHT22;6702;47.068;15.458;2023-02-28T06:05:20;3.80;59.80
13268;DHT22;6702;47.068;15.458;2023-02-28T06:08:24;3.80;59.70
13268;DHT22;6702;47.068;15.458;2023-02-28T06:11:28;3.80;59.80
13268;DHT22;6702;47.068;15.458;2023-02-28T06:14:33;3.80;59.90
13268;DHT22;6702;47.068;15.458;2023-02-28T06:17:36;3.80;59.80
13268;DHT22;6702;47.068;15.458;2023-02-28T06:20:39;3.80;60.00
13268;DHT22;6702;47.068;15.458;2023-02-28T06:23:44;3.80;60.00
13268;DHT22;6702;47.068;15.458;2023-02-28T06:26:49;3.80;60.20
13268;DHT22;6702;47.068;15.458;2023-02-28T06:29:54;3.80;60.10
13268;DHT22;6702;47.068;15.458;2023-02-28T06:32:57;3.80;60.20
13268;DHT22;6702;47.068;15.458;2023-02-28T06:36:00;3.80;60.20
13268;DHT22;6702;47.068;15.458;2023-02-28T06:39:04;3.80;60.60
13268;DHT22;6702;47.068;15.458;2023-02-28T06:42:09;3.60;60.40
13268;DHT22;6702;47.068;15.458;2023-02-28T06:45:12;3.70;61.20
13268;DHT22;6702;47.068;15.458;2023-02-28T06:48:15;3.70;61.10
13268;DHT22;6702;47.068;15.458;2023-02-28T06:51:20;3.70;61.30
13268;DHT22;6702;47.068;15.458;2023-02-28T06:54:24;3.80;61.40
13268;DHT22;6702;47.068;15.458;2023-02-28T06:57:30;3.90;61.30
13268;DHT22;6702;47.068;15.458;2023-02-28T07:00:33;3.80;61.00
13268;DHT22;6702;47.068;15.458;2023-02-28T07:03:37;3.80;61.10
13268;DHT22;6702;47.068;15.458;2023-02-28T07:06:40;3.70;61.40
13268;DHT22;6702;47.068;15.458;2023-02-28T07:09:43;3.70;61.70
13268;DHT22;6702;47.068;15.458;2023-02-28T07:12:48;3.80;61.90
13268;DHT22;6702;47.068;15.458;2023-02-28T07:15:54;3.70;62.00
13268;DHT22;6702;47.068;15.458;2023-02-28T07:18:58;3.70;61.60
13268;DHT22;6702;47.068;15.458;2023-02-28T07:22:01;3.80;61.70
13268;DHT22;6702;47.068;15.458;2023-02-28T07:25:05;3.80;61.70
13268;DHT22;6702;47.068;15.458;2023-02-28T07:28:10;3.80;62.10
13268;DHT22;6702;47.068;15.458;2023-02-28T07:31:14;3.90;62.00
13268;DHT22;6702;47.068;15.458;2023-02-28T07:34:17;3.80;62.10
13268;DHT22;6702;47.068;15.458;2023-02-28T07:37:20;3.90;62.30
13268;DHT22;6702;47.068;15.458;2023-02-28T07:40:24;4.00;62.40
13268;DHT22;6702;47.068;15.458;2023-02-28T07:43:28;4.00;62.00
13268;DHT22;6702;47.068;15.458;2023-02-28T07:46:31;4.10;61.90
13268;DHT22;6702;47.068;15.458;2023-02-28T07:49:38;4.10;62.00
13268;DHT22;6702;47.068;15.458;2023-02-28T07:52:41;4.10;62.30
13268;DHT22;6702;47.068;15.458;2023-02-28T07:55:44;4.10;61.90
13268;DHT22;6702;47.068;15.458;2023-02-28T07:58:49;4.20;62.00
13268;DHT22;6702;47.068;15.458;2023-02-28T08:01:53;4.20;62.00
13268;DHT22;6702;47.068;15.458;2023-02-28T08:04:56;4.10;61.80
13268;DHT22;6702;47.068;15.458;2023-02-28T08:07:59;4.10;61.90
13268;DHT22;6702;47.068;15.458;2023-02-28T08:11:03;4.10;63.20
13268;DHT22;6702;47.068;15.458;2023-02-28T08:14:07;4.10;64.40
13268;DHT22;6702;47.068;15.458;2023-02-28T08:17:11;4.20;63.80
13268;DHT22;6702;47.068;15.458;2023-02-28T08:20:14;4.10;64.60
13268;DHT22;6702;47.068;15.458;2023-02-28T08:23:17;4.10;64.50
13268;DHT22;6702;47.068;15.458;2023-02-28T08:26:20;4.10;64.30
13268;DHT22;6702;47.068;15.458;2023-02-28T08:29:25;4.30;63.80
13268;DHT22;6702;47.068;15.458;2023-02-28T08:32:28;4.40;63.20
13268;DHT22;6702;47.068;15.458;2023-02-28T08:35:31;4.50;62.30
13268;DHT22;6702;47.068;15.458;2023-02-28T08:38:35;4.70;62.10
13268;DHT22;6702;47.068;15.458;2023-02-28T08:41:38;4.70;61.80
13268;DHT22;6702;47.068;15.458;2023-02-28T08:44:43;4.70;61.30
13268;DHT22;6702;47.068;15.458;2023-02-28T08:47:46;4.60;61.70
13268;DHT22;6702;47.068;15.458;2023-02-28T08:50:55;4.70;61.60
13268;DHT22;6702;47.068;15.458;2023-02-28T08:54:08;4.80;61.50
13268;DHT22;6702;47.068;15.458;2023-02-28T08:57:14;4.80;61.00
13268;DHT22;6702;47.068;15.458;2023-02-28T09:00:19;4.80;61.00
13268;DHT22;6702;47.068;15.458;2023-02-28T09:03:23;4.80;60.60
13268;DHT22;6702;47.068;15.458;2023-02-28T09:06:27;4.80;60.70
13268;DHT22;6702;47.068;15.458;2023-02-28T09:09:31;4.80;60.60
13268;DHT22;6702;47.068;15.458;2023-02-28T09:12:34;4.60;61.00
13268;DHT22;6702;47.068;15.458;2023-02-28T09:15:39;4.70;61.40
13268;DHT22;6702;47.068;15.458;2023-02-28T09:18:43;4.80;60.80
13268;DHT22;6702;47.068;15.458;2023-02-28T09:21:47;4.90;60.50
13268;DHT22;6702;47.068;15.458;2023-02-28T09:24:50;5.10;60.70
13268;DHT22;6702;47.068;15.458;2023-02-28T09:27:53;5.20;60.50
13268;DHT22;6702;47.068;15.458;2023-02-28T09:30:58;5.20;60.00
13268;DHT22;6702;47.068;15.458;2023-02-28T09:34:01;5.30;59.80
13268;DHT22;6702;47.068;15.458;2023-02-28T09:37:04;5.40;59.50
13268;DHT22;6702;47.068;15.458;2023-02-28T09:40:09;5.40;59.40
13268;DHT22;6702;47.068;15.458;2023-02-28T09:43:14;5.40;58.80
13268;DHT22;6702;47.068;15.458;2023-02-28T09:46:31;5.20;59.00
13268;DHT22;6702;47.068;15.458;2023-02-28T09:49:40;5.20;59.20
13268;DHT22;6702;47.068;15.458;2023-02-28T09:52:45;5.30;59.50
13268;DHT22;6702;47.068;15.458;2023-02-28T09:55:54;5.40;59.50
13268;DHT22;6702;47.068;15.458;2023-02-28T09:59:01;5.30;59.50
13268;DHT22;6702;47.068;15.458;2023-02-28T10:02:17;5.40;59.40
13268;DHT22;6702;47.068;15.458;2023-02-28T10:05:24;5.60;59.50
13268;DHT22;6702;47.068;15.458;2023-02-28T10:08:33;5.80;58.80
13268;DHT22;6702;47.068;15.458;2023-02-28T10:11:38;6.00;58.50
13268;DHT22;6702;47.068;15.458;2023-02-28T10:14:45;6.20;57.80
13268;DHT22;6702;47.068;15.458;2023-02-28T10:17:54;6.40;57.40
13268;DHT22;6702;47.068;15.458;2023-02-28T10:21:17;6.40;57.00
13268;DHT22;6702;47.068;15.458;2023-02-28T10:24:29;6.60;56.80
13268;DHT22;6702;47.068;15.458;2023-02-28T10:27:34;6.60;57.20
13268;DHT22;6702;47.068;15.458;2023-02-28T10:30:42;6.70;56.20
13268;DHT22;6702;47.068;15.458;2023-02-28T10:33:48;6.90;55.90
13268;DHT22;6702;47.068;15.458;2023-02-28T10:36:51;6.80;55.40
13268;DHT22;6702;47.068;15.458;2023-02-28T10:39:55;6.70;55.60
13268;DHT22;6702;47.068;15.458;2023-02-28T10:42:59;6.80;55.60
13268;DHT22;6702;47.068;15.458;2023-02-28T10:46:09;7.00;55.40
13268;DHT22;6702;47.068;15.458;2023-02-28T10:49:21;7.00;55.00
13268;DHT22;6702;47.068;15.458;2023-02-28T10:52:37;7.00;54.80
13268;DHT22;6702;47.068;15.458;2023-02-28T10:55:41;7.10;54.70
13268;DHT22;6702;47.068;15.458;2023-02-28T10:58:49;7.00;54.60
13268;DHT22;6702;47.068;15.458;2023-02-28T11:01:52;6.80;55.00
13268;DHT22;6702;47.068;15.458;2023-02-28T11:04:57;6.90;55.10
13268;DHT22;6702;47.068;15.458;2023-02-28T11:08:05;6.90;54.80
13268;DHT22;6702;47.068;15.458;2023-02-28T11:11:09;6.80;54.50
13268;DHT22;6702;47.068;15.458;2023-02-28T11:14:19;6.50;55.00
13268;DHT22;6702;47.068;15.458;2023-02-28T11:17:26;6.60;55.70
13268;DHT22;6702;47.068;15.458;2023-02-28T11:20:32;7.20;55.50
13268;DHT22;6702;47.068;15.458;2023-02-28T11:23:37;7.70;54.00
13268;DHT22;6702;47.068;15.458;2023-02-28T11:26:45;8.40;53.60
13268;DHT22;6702;47.068;15.458;2023-02-28T11:29:48;9.30;51.70
13268;DHT22;6702;47.068;15.458;2023-02-28T11:32:51;10.30;49.20
13268;DHT22;6702;47.068;15.458;2023-02-28T11:35:59;11.30;46.80
13268;DHT22;6702;47.068;15.458;2023-02-28T11:39:10;11.80;45.70
13268;DHT22;6702;47.068;15.458;2023-02-28T11:42:40;12.30;44.70
13268;DHT22;6702;47.068;15.458;2023-02-28T11:45:58;12.00;43.30
13268;DHT22;6702;47.068;15.458;2023-02-28T11:49:30;12.10;44.00
13268;DHT22;6702;47.068;15.458;2023-02-28T11:52:42;12.10;43.90
13268;DHT22;6702;47.068;15.458;2023-02-28T11:55:50;12.10;43.70
13268;DHT22;6702;47.068;15.458;2023-02-28T11:59:05;12.10;43.40
13268;DHT22;6702;47.068;15.458;2023-02-28T12:02:30;11.90;42.90
13268;DHT22;6702;47.068;15.458;2023-02-28T12:05:42;11.60;43.00
13268;DHT22;6702;47.068;15.458;2023-02-28T12:08:59;11.40;43.90
13268;DHT22;6702;47.068;15.458;2023-02-28T12:12:10;11.40;44.00
13268;DHT22;6702;47.068;15.458;2023-02-28T12:15:28;11.70;43.70
13268;DHT22;6702;47.068;15.458;2023-02-28T12:18:47;11.90;43.30
13268;DHT22;6702;47.068;15.458;2023-02-28T12:22:15;12.10;43.20
13268;DHT22;6702;47.068;15.458;2023-02-28T12:25:41;12.00;43.00
13268;DHT22;6702;47.068;15.458;2023-02-28T12:28:54;12.00;43.00
13268;DHT22;6702;47.068;15.458;2023-02-28T12:32:03;11.70;43.40
13268;DHT22;6702;47.068;15.458;2023-02-28T12:35:13;11.30;43.70
13268;DHT22;6702;47.068;15.458;2023-02-28T12:38:20;10.80;44.40
13268;DHT22;6702;47.068;15.458;2023-02-28T12:41:33;10.50;45.30
13268;DHT22;6702;47.068;15.458;2023-02-28T12:44:44;10.10;45.90
13268;DHT22;6702;47.068;15.458;2023-02-28T12:47:50;9.40;48.20
13268;DHT22;6702;47.068;15.458;2023-02-28T12:50:56;8.40;50.00
13268;DHT22;6702;47.068;15.458;2023-02-28T12:54:05;8.30;51.40
13268;DHT22;6702;47.068;15.458;2023-02-28T12:57:17;8.30;52.50
13268;DHT22;6702;47.068;15.458;2023-02-28T13:00:23;8.90;51.60
13268;DHT22;6702;47.068;15.458;2023-02-28T13:03:49;9.50;50.80
13268;DHT22;6702;47.068;15.458;2023-02-28T13:07:16;10.10;48.50
13268;DHT22;6702;47.068;15.458;2023-02-28T13:10:23;10.40;47.40
13268;DHT22;6702;47.068;15.458;2023-02-28T13:13:29;10.30;46.90
13268;DHT22;6702;47.068;15.458;2023-02-28T13:16:56;10.40;47.20
13268;DHT22;6702;47.068;15.458;2023-02-28T13:20:00;10.00;47.80
13268;DHT22;6702;47.068;15.458;2023-02-28T13:23:03;9.80;49.60
13268;DHT22;6702;47.068;15.458;2023-02-28T13:34:13;9.70;50.00
13268;DHT22;6702;47.068;15.458;2023-02-28T13:37:36;9.50;50.60
13268;DHT22;6702;47.068;15.458;2023-02-28T13:40:40;9.30;50.80
13268;DHT22;6702;47.068;15.458;2023-02-28T13:44:03;9.50;50.70
13268;DHT22;6702;47.068;15.458;2023-02-28T13:47:23;9.40;51.10
13268;DHT22;6702;47.068;15.458;2023-02-28T13:50:32;9.30;51.30
13268;DHT22;6702;47.068;15.458;2023-02-28T13:53:54;9.20;51.50
13268;DHT22;6702;47.068;15.458;2023-02-28T13:57:12;9.30;51.60
13268;DHT22;6702;47.068;15.458;2023-02-28T14:00:28;10.10;50.20
13268;DHT22;6702;47.068;15.458;2023-02-28T14:03:48;10.30;48.70
13268;DHT22;6702;47.068;15.458;2023-02-28T14:06:59;10.80;48.70
13268;DHT22;6702;47.068;15.458;2023-02-28T14:10:04;10.50;48.50
13268;DHT22;6702;47.068;15.458;2023-02-28T14:13:37;10.40;48.40
13268;DHT22;6702;47.068;15.458;2023-02-28T14:16:47;9.80;50.00
13268;DHT22;6702;47.068;15.458;2023-02-28T14:19:52;9.30;51.20
13268;DHT22;6702;47.068;15.458;2023-02-28T14:23:06;9.10;51.90
13268;DHT22;6702;47.068;15.458;2023-02-28T14:26:25;9.10;51.70
13268;DHT22;6702;47.068;15.458;2023-02-28T14:29:52;9.10;51.80
13268;DHT22;6702;47.068;15.458;2023-02-28T14:33:11;9.20;52.60
13268;DHT22;6702;47.068;15.458;2023-02-28T14:36:21;8.80;51.90
13268;DHT22;6702;47.068;15.458;2023-02-28T14:39:28;8.70;52.20
13268;DHT22;6702;47.068;15.458;2023-02-28T14:42:34;8.70;52.20
13268;DHT22;6702;47.068;15.458;2023-02-28T14:45:37;8.50;53.00
13268;DHT22;6702;47.068;15.458;2023-02-28T14:48:40;8.60;52.70
13268;DHT22;6702;47.068;15.458;2023-02-28T14:51:44;8.50;52.80
13268;DHT22;6702;47.068;15.458;2023-02-28T14:54:54;8.40;53.00
13268;DHT22;6702;47.068;15.458;2023-02-28T14:57:59;8.20;52.90
13268;DHT22;6702;47.068;15.458;2023-02-28T15:01:04;8.20;53.50
13268;DHT22;6702;47.068;15.458;2023-02-28T15:04:18;8.10;53.50
13268;DHT22;6702;47.068;15.458;2023-02-28T15:07:24;8.10;53.50
13268;DHT22;6702;47.068;15.458;2023-02-28T15:10:35;8.00;53.80
13268;DHT22;6702;47.068;15.458;2023-02-28T15:13:41;7.80;53.70
13268;DHT22;6702;47.068;15.458;2023-02-28T15:16:48;7.60;54.70
13268;DHT22;6702;47.068;15.458;2023-02-28T15:19:53;7.50;54.70
13268;DHT22;6702;47.068;15.458;2023-02-28T15:22:57;7.30;55.20
13268;DHT22;6702;47.068;15.458;2023-02-28T15:26:03;7.30;55.80
13268;DHT22;6702;47.068;15.458;2023-02-28T15:29:11;7.20;55.60
13268;DHT22;6702;47.068;15.458;2023-02-28T15:32:36;7.30;55.80
13268;DHT22;6702;47.068;15.458;2023-02-28T15:35:41;7.30;55.80
13268;DHT22;6702;47.068;15.458;2023-02-28T15:38:50;7.30;56.10
13268;DHT22;6702;47.068;15.458;2023-02-28T15:42:18;7.30;55.90
13268;DHT22;6702;47.068;15.458;2023-02-28T15:45:32;7.30;55.60
13268;DHT22;6702;47.068;15.458;2023-02-28T15:48:44;7.30;55.80
13268;DHT22;6702;47.068;15.458;2023-02-28T15:51:49;7.20;56.20
13268;DHT22;6702;47.068;15.458;2023-02-28T15:54:53;7.00;57.30
13268;DHT22;6702;47.068;15.458;2023-02-28T15:58:01;6.90;57.70
13268;DHT22;6702;47.068;15.458;2023-02-28T16:01:15;6.80;57.80
13268;DHT22;6702;47.068;15.458;2023-02-28T16:04:19;6.90;58.10
13268;DHT22;6702;47.068;15.458;2023-02-28T16:07:23;6.60;58.40
13268;DHT22;6702;47.068;15.458;2023-02-28T16:10:28;6.60;58.70
13268;DHT22;6702;47.068;15.458;2023-02-28T16:13:34;6.50;58.50
13268;DHT22;6702;47.068;15.458;2023-02-28T16:16:42;6.50;58.70
13268;DHT22;6702;47.068;15.458;2023-02-28T16:19:46;6.40;59.00
13268;DHT22;6702;47.068;15.458;2023-02-28T16:22:50;6.30;59.40
13268;DHT22;6702;47.068;15.458;2023-02-28T16:25:53;6.10;59.50
13268;DHT22;6702;47.068;15.458;2023-02-28T16:28:58;6.10;60.00
13268;DHT22;6702;47.068;15.458;2023-02-28T16:32:04;6.00;60.20
13268;DHT22;6702;47.068;15.458;2023-02-28T16:35:10;5.90;60.30
13268;DHT22;6702;47.068;15.458;2023-02-28T16:38:16;5.90;60.70
13268;DHT22;6702;47.068;15.458;2023-02-28T16:41:21;5.80;60.80
13268;DHT22;6702;47.068;15.458;2023-02-28T16:44:31;5.80;61.10
13268;DHT22;6702;47.068;15.458;2023-02-28T16:47:35;5.80;61.20
13268;DHT22;6702;47.068;15.458;2023-02-28T16:50:39;5.80;60.70
13268;DHT22;6702;47.068;15.458;2023-02-28T16:53:43;5.70;61.30
13268;DHT22;6702;47.068;15.458;2023-02-28T16:56:48;5.60;61.70
13268;DHT22;6702;47.068;15.458;2023-02-28T16:59:53;5.50;62.50
13268;DHT22;6702;47.068;15.458;2023-02-28T17:02:57;5.30;63.80
13268;DHT22;6702;47.068;15.458;2023-02-28T17:06:03;5.30;64.10
13268;DHT22;6702;47.068;15.458;2023-02-28T17:09:14;5.40;64.70
13268;DHT22;6702;47.068;15.458;2023-02-28T17:12:19;5.40;65.10
13268;DHT22;6702;47.068;15.458;2023-02-28T17:15:24;5.40;65.30
13268;DHT22;6702;47.068;15.458;2023-02-28T17:18:28;5.40;65.60
13268;DHT22;6702;47.068;15.458;2023-02-28T17:21:36;5.40;66.00
13268;DHT22;6702;47.068;15.458;2023-02-28T17:24:40;5.40;66.30
13268;DHT22;6702;47.068;15.458;2023-02-28T17:27:44;5.40;66.80
13268;DHT22;6702;47.068;15.458;2023-02-28T17:30:49;5.40;66.90
13268;DHT22;6702;47.068;15.458;2023-02-28T17:33:54;5.30;67.30
13268;DHT22;6702;47.068;15.458;2023-02-28T17:36:57;5.20;67.70
13268;DHT22;6702;47.068;15.458;2023-02-28T17:40:02;5.10;68.00
13268;DHT22;6702;47.068;15.458;2023-02-28T17:43:07;5.10;68.60
13268;DHT22;6702;47.068;15.458;2023-02-28T17:46:17;5.00;69.10
13268;DHT22;6702;47.068;15.458;2023-02-28T17:49:23;5.10;69.40
13268;DHT22;6702;47.068;15.458;2023-02-28T17:52:29;5.00;69.70
13268;DHT22;6702;47.068;15.458;2023-02-28T17:55:38;5.10;69.60
13268;DHT22;6702;47.068;15.458;2023-02-28T17:58:42;5.10;69.10
13268;DHT22;6702;47.068;15.458;2023-02-28T18:01:48;5.20;69.10
13268;DHT22;6702;47.068;15.458;2023-02-28T18:04:52;5.20;69.10
13268;DHT22;6702;47.068;15.458;2023-02-28T18:07:57;5.20;68.90
13268;DHT22;6702;47.068;15.458;2023-02-28T18:11:02;5.20;69.20
13268;DHT22;6702;47.068;15.458;2023-02-28T18:14:07;5.10;69.20
13268;DHT22;6702;47.068;15.458;2023-02-28T18:17:13;5.20;69.00
13268;DHT22;6702;47.068;15.458;2023-02-28T18:20:18;5.10;68.90
13268;DHT22;6702;47.068;15.458;2023-02-28T18:23:23;5.00;69.20
13268;DHT22;6702;47.068;15.458;2023-02-28T18:26:29;5.00;69.50
13268;DHT22;6702;47.068;15.458;2023-02-28T18:29:34;5.00;69.40
13268;DHT22;6702;47.068;15.458;2023-02-28T18:32:43;5.10;69.40
13268;DHT22;6702;47.068;15.458;2023-02-28T18:35:55;5.20;69.50
13268;DHT22;6702;47.068;15.458;2023-02-28T18:38:59;5.20;69.30
13268;DHT22;6702;47.068;15.458;2023-02-28T18:42:03;5.20;69.50
13268;DHT22;6702;47.068;15.458;2023-02-28T18:45:08;5.20;69.30
13268;DHT22;6702;47.068;15.458;2023-02-28T18:48:15;5.30;69.40
13268;DHT22;6702;47.068;15.458;2023-02-28T18:51:23;5.30;68.90
13268;DHT22;6702;47.068;15.458;2023-02-28T18:54:27;5.30;68.60
13268;DHT22;6702;47.068;15.458;2023-02-28T18:57:32;5.30;68.40
13268;DHT22;6702;47.068;15.458;2023-02-28T19:00:38;5.30;68.80
13268;DHT22;6702;47.068;15.458;2023-02-28T19:03:44;5.40;68.80
13268;DHT22;6702;47.068;15.458;2023-02-28T19:06:49;5.40;68.60
13268;DHT22;6702;47.068;15.458;2023-02-28T19:09:53;5.30;68.30
13268;DHT22;6702;47.068;15.458;2023-02-28T19:12:59;5.40;68.30
13268;DHT22;6702;47.068;15.458;2023-02-28T19:16:07;5.40;68.30
13268;DHT22;6702;47.068;15.458;2023-02-28T19:19:13;5.40;67.90
13268;DHT22;6702;47.068;15.458;2023-02-28T19:22:19;5.40;68.00
13268;DHT22;6702;47.068;15.458;2023-02-28T19:25:26;5.40;68.10
13268;DHT22;6702;47.068;15.458;2023-02-28T19:28:33;5.40;68.10
13268;DHT22;6702;47.068;15.458;2023-02-28T19:31:38;5.40;68.10
13268;DHT22;6702;47.068;15.458;2023-02-28T19:34:44;5.40;68.20
13268;DHT22;6702;47.068;15.458;2023-02-28T19:37:49;5.50;68.20
13268;DHT22;6702;47.068;15.458;2023-02-28T19:41:00;5.50;67.90
13268;DHT22;6702;47.068;15.458;2023-02-28T19:44:04;5.50;67.80
13268;DHT22;6702;47.068;15.458;2023-02-28T19:47:09;5.50;67.50
13268;DHT22;6702;47.068;15.458;2023-02-28T19:50:16;5.50;67.70
13268;DHT22;6702;47.068;15.458;2023-02-28T19:53:20;5.50;67.60
13268;DHT22;6702;47.068;15.458;2023-02-28T19:56:25;5.50;67.50
13268;DHT22;6702;47.068;15.458;2023-02-28T19:59:37;5.60;67.70
13268;DHT22;6702;47.068;15.458;2023-02-28T20:02:42;5.50;67.70
13268;DHT22;6702;47.068;15.458;2023-02-28T20:05:57;5.60;67.90
13268;DHT22;6702;47.068;15.458;2023-02-28T20:09:03;5.50;67.80